Lorain, OH (44053)

11:02 PM EDT on September 01, 2015 (GMT -0400)
Sheffield Township - south of Penfield Junction | | Change Station
CLOSE
Current Station
Personal Weather Station
Location: Lorain, OH
Elevation: 705 ft
Nearby Weather Stations

Elev 705 ft 41.42 °N, 82.16 °W | Updated 12 seconds ago

Partly Cloudy
Partly Cloudy
73.9 °F
Feels Like 73 °F
N
0.0
Wind Variable Wind from North
Gusts 0.0 mph

Today
High -- | Low -- °F
--% Chance of Precip.
Yesterday
High -- | Low -- °F
Precip. -- in
6:54 AM 8:02 PM
Waning Gibbous, 84% visible
Pressure 30.08 in
Visibility 8.0 miles
Clouds Clear
Heat Index 73 °F
Dew Point 70 °F
Humidity 88%
Rainfall 0.00 in
Snow Depth Not available.
UV 0 out of 12
Pollen 10.80 out of 12
Air Quality Not available.
Flu Activity Not available.
METAR KLPR 020253Z AUTO 21005KT 8SM CLR 22/20 A3009 RMK AO2 SLP184 T02220200 51009 TSNO
Pressure 30.08 in
Visibility 8.0 miles
Clouds Clear
Heat Index 73 °F
Dew Point 70 °F
Humidity 88%
Rainfall 0.00 in
Snow Depth Not available.
UV 0 out of 12
Pollen 10.80 out of 12
Air Quality Not available.
Flu Activity Not available.
METAR KLPR 020253Z AUTO 21005KT 8SM CLR 22/20 A3009 RMK AO2 SLP184 T02220200 51009 TSNO

10-Day Weather Forecast

×

Almanac

Astronomy

Sep. 01, 2015 Rise Set
Actual Time
Civil Twilight
Nautical Twilight
Astronomical Twilight
Moon
Length of Visible Light
Length of Day
Tomorrow will be .
, % of the Moon is Illuminated

Today's Extremes

State Highs State Lows

Community

WunderPhotos

Upload Photos

1,851,682 photos uploaded!

WunderBlogs® & News

Nearby

Air Quality

  Air Quality AQ Index Pollutant
Not available.

Snow Depth

Station Depth Elevation

Earthquake Activity

City Distance Mag. Time & Date
Minimum magnitude displayed is 2.5.

Coastal Water Temperatures

Place Temperature

Stations

Nearby Weather Stations

Station Location Temp. Windchill Dew Point Humidity Wind Precip. Elev Updated Type